Bon Secour, Alabama
Current Conditions -  °F | °C
As of 1:15 AM on Friday 31 Oct 2014 (Local Time) from KJKA Reporting Station
Clear Clear  
Wind Chill: 46°   Ceiling: Unl
Heat Index: 46°   Visibility: 10mi
Dew Point: 44°   Wind: 0mph
Humidity: 92%   Direction: NA
Pressure: 30.02"   Gusts: NA
Location:  30.32°N, 87.73°W
Report Text: KJKA 310615Z AUTO 00000KT 10SM CLR 08/07 A3002 RMK AO2 T00780065
Loading
Personal Weather Stations






























Interactive Weather Map
Tropical Storm Tracking
New forecast layout! Learn more

10-Day Weather Forecast

Advertisements
Track Severe Weather on mobile